Alden, Alabama
Current Conditions -  °F | °C
As of 9:13 AM on Sunday 23 Nov 2014 (Local Time) from KBHM Reporting Station
Haze Haze  
Wind Chill: 14°   Ceiling: 1000
Heat Index: 14°   Visibility: 6mi
Dew Point: 13°   Wind: 14mph
Humidity: 93%   Direction: 120°ESE
Pressure: 29.85"   Gusts: 21mph
Location:  33.652°N, 86.9784°W
Report Text: KBHM 231513Z 12012G18KT 6SM BR BKN010 OVC014 14/13 A2985 RMK AO2 CIG 007V013 T01440133
Loading
Personal Weather Stations






























Interactive Weather Map New forecast layout! Learn more

10-Day Weather Forecast

Advertisements
Track Severe Weather on mobile